Time;durP1;ratioP1;P1;durP2;ratioP2;P2;SDS_P1;SDS_P2;PMS_P1;PMS_P2;Temp;Humidity;BMP_temperature;BMP_pressure;BME280_temperature;BME280_humidity;BME280_pressure;Samples;Min_cycle;Max_cycle;Signal;HPM_P1;HPM_P2
2022/03/18 00:00:50;;;;;;;34.20;19.50;;;;;;;0.77;41.78;102462.63;107679;1270;137907;-78
2022/03/18 00:03:23;;;;;;;32.60;18.80;;;;;;;0.74;41.89;102469.89;107832;1270;107639;-79
2022/03/18 00:05:55;;;;;;;32.40;19.30;;;;;;;0.73;41.69;102471.05;107786;1270;109176;-79
2022/03/18 00:08:28;;;;;;;33.90;19.10;;;;;;;0.72;41.77;102474.21;107684;1270;137710;-78
2022/03/18 00:11:00;;;;;;;31.00;19.20;;;;;;;0.70;41.94;102473.95;107827;1270;96204;-79
2022/03/18 00:13:33;;;;;;;33.60;18.70;;;;;;;0.68;42.04;102476.79;107615;1270;138536;-78
2022/03/18 00:16:06;;;;;;;33.20;19.40;;;;;;;0.66;42.14;102484.39;107854;1270;107786;-79
2022/03/18 00:18:38;;;;;;;34.70;18.70;;;;;;;0.64;42.23;102488.42;107622;1271;139391;-80
2022/03/18 00:21:11;;;;;;;28.80;17.80;;;;;;;0.61;42.31;102486.27;107809;1270;96310;-79
2022/03/18 00:23:44;;;;;;;29.80;17.90;;;;;;;0.59;42.19;102490.98;107796;1270;96070;-79
2022/03/18 00:26:16;;;;;;;30.20;18.60;;;;;;;0.57;42.17;102492.45;107706;1270;138170;-79
2022/03/18 00:28:48;;;;;;;31.00;19.20;;;;;;;0.56;42.62;102494.98;107851;1270;105958;-79
2022/03/18 00:31:20;;;;;;;30.40;17.90;;;;;;;0.55;42.56;102492.33;107581;1271;136703;-79
2022/03/18 00:33:52;;;;;;;30.10;18.50;;;;;;;0.52;42.60;102492.35;107784;1270;96061;-79
2022/03/18 00:36:25;;;;;;;28.60;18.30;;;;;;;0.50;42.46;102492.45;107720;1270;137725;-79
2022/03/18 00:38:58;;;;;;;34.60;18.10;;;;;;;0.49;42.59;102492.91;107828;1270;112190;-79
2022/03/18 00:41:30;;;;;;;28.30;17.50;;;;;;;0.47;42.58;102495.23;107827;1269;107800;-79
2022/03/18 00:44:03;;;;;;;34.40;18.10;;;;;;;0.46;42.76;102494.80;107654;1270;139223;-79
2022/03/18 00:46:37;;;;;;;31.00;17.90;;;;;;;0.43;42.74;102491.10;107801;1270;95980;-79
2022/03/18 00:52:05;;;;;;;32.50;18.30;;;;;;;0.40;42.87;102499.19;107831;1270;111366;-79
2022/03/18 00:54:39;;;;;;;31.90;17.90;;;;;;;0.37;43.23;102501.98;107701;1270;138429;-78
2022/03/18 00:57:12;;;;;;;27.00;17.10;;;;;;;0.36;43.18;102498.14;107789;1270;107780;-78
2022/03/18 00:59:45;;;;;;;31.10;17.80;;;;;;;0.34;43.06;102497.55;107825;1270;96137;-78
2022/03/18 01:02:17;;;;;;;32.50;18.60;;;;;;;0.33;43.28;102498.33;107681;1270;139886;-79
2022/03/18 01:04:50;;;;;;;29.60;18.10;;;;;;;0.32;43.15;102498.44;107816;1270;112859;-79
2022/03/18 01:07:22;;;;;;;29.10;18.10;;;;;;;0.30;43.26;102494.11;107681;1270;138469;-79
2022/03/18 01:09:54;;;;;;;28.60;17.80;;;;;;;0.28;43.55;102487.33;107799;1270;107875;-79
2022/03/18 01:12:26;;;;;;;31.20;17.80;;;;;;;0.25;43.25;102486.66;107706;1270;140756;-79
2022/03/18 01:14:59;;;;;;;31.50;18.10;;;;;;;0.22;43.76;102485.35;107819;1270;96039;-79
2022/03/18 01:17:33;;;;;;;29.80;19.00;;;;;;;0.21;43.50;102485.47;107793;1270;111393;-79
2022/03/18 01:20:06;;;;;;;31.40;19.20;;;;;;;0.19;43.69;102485.75;107679;1270;137730;-79
2022/03/18 01:22:41;;;;;;;31.30;17.70;;;;;;;0.19;43.43;102486.39;107833;1270;107949;-79
2022/03/18 01:25:13;;;;;;;33.60;19.00;;;;;;;0.17;44.00;102488.02;107605;1270;139290;-77
2022/03/18 01:27:46;;;;;;;29.80;18.10;;;;;;;0.15;44.08;102492.72;107832;1269;96254;-78
2022/03/18 01:30:18;;;;;;;25.60;16.80;;;;;;;0.12;44.08;102496.70;107689;1270;139951;-77
2022/03/18 01:32:50;;;;;;;30.30;18.40;;;;;;;0.11;43.96;102501.45;107825;1270;107928;-78
2022/03/18 01:35:23;;;;;;;30.90;17.10;;;;;;;0.11;44.27;102503.33;107782;1271;107009;-78
2022/03/18 01:37:55;;;;;;;31.30;18.70;;;;;;;0.11;44.13;102499.90;107672;1270;138796;-78
2022/03/18 01:40:27;;;;;;;27.20;17.40;;;;;;;0.10;44.25;102500.54;107817;1271;96030;-78
2022/03/18 01:42:59;;;;;;;35.30;18.80;;;;;;;0.09;44.45;102505.44;107692;1270;138533;-78
2022/03/18 01:45:31;;;;;;;29.90;18.10;;;;;;;0.07;44.18;102509.81;107799;1270;107714;-78
2022/03/18 01:48:03;;;;;;;30.70;18.10;;;;;;;0.06;44.43;102511.10;107788;1270;105864;-78
2022/03/18 01:50:38;;;;;;;29.00;17.10;;;;;;;0.03;44.53;102509.12;107671;1270;138869;-78
2022/03/18 01:53:10;;;;;;;28.60;17.30;;;;;;;0.02;44.39;102506.64;107822;1271;96749;-78
2022/03/18 01:55:43;;;;;;;27.80;16.20;;;;;;;-0.01;44.64;102508.40;107645;1271;138383;-78
2022/03/18 01:58:15;;;;;;;28.90;17.80;;;;;;;-0.03;44.63;102503.16;107818;1270;108750;-78
2022/03/18 02:00:47;;;;;;;28.90;17.30;;;;;;;-0.05;45.06;102508.23;107684;1270;138231;-78
2022/03/18 02:03:20;;;;;;;27.80;17.90;;;;;;;-0.05;44.81;102510.08;107788;1271;96280;-78
2022/03/18 02:05:52;;;;;;;27.80;16.80;;;;;;;-0.07;44.76;102511.21;107839;1270;95763;-78
2022/03/18 02:08:25;;;;;;;30.30;17.30;;;;;;;-0.09;44.65;102513.69;107696;1270;137920;-79
2022/03/18 02:10:59;;;;;;;32.20;17.10;;;;;;;-0.10;44.98;102511.92;107861;1270;109114;-80
2022/03/18 02:13:32;;;;;;;26.80;16.90;;;;;;;-0.10;44.94;102515.33;107692;1270;137975;-78
2022/03/18 02:16:05;;;;;;;28.10;17.00;;;;;;;-0.11;45.24;102513.23;107749;1270;96207;-78
2022/03/18 02:18:38;;;;;;;29.20;16.80;;;;;;;-0.13;45.06;102508.21;107675;1270;138057;-79
2022/03/18 02:21:10;;;;;;;25.90;15.70;;;;;;;-0.15;45.24;102508.61;107830;1270;111435;-78
2022/03/18 02:23:43;;;;;;;27.70;17.10;;;;;;;-0.16;45.18;102514.70;107839;1271;109704;-79
2022/03/18 02:26:16;;;;;;;26.80;16.70;;;;;;;-0.18;45.16;102516.18;107681;1270;139098;-78
2022/03/18 02:28:48;;;;;;;30.60;17.10;;;;;;;-0.19;45.30;102516.77;107804;1270;96223;-78
2022/03/18 02:31:20;;;;;;;28.90;16.60;;;;;;;-0.20;45.30;102520.98;107673;1270;137790;-78
2022/03/18 02:33:52;;;;;;;28.70;18.00;;;;;;;-0.22;45.54;102526.03;107812;1271;112216;-78
2022/03/18 02:36:24;;;;;;;30.30;16.90;;;;;;;-0.24;45.37;102527.81;107719;1270;139118;-78
2022/03/18 02:38:57;;;;;;;28.30;16.90;;;;;;;-0.26;45.37;102527.36;107783;1270;107854;-78
2022/03/18 02:41:29;;;;;;;28.10;17.00;;;;;;;-0.28;45.62;102524.71;107805;1270;96337;-78
2022/03/18 02:44:01;;;;;;;33.40;17.70;;;;;;;-0.30;45.39;102528.73;107681;1270;139553;-78
2022/03/18 02:46:33;;;;;;;31.70;17.90;;;;;;;-0.32;45.70;102532.09;107834;1270;112457;-79
2022/03/18 02:49:07;;;;;;;28.40;17.20;;;;;;;-0.35;45.69;102532.11;107617;1271;139022;-78
2022/03/18 02:51:40;;;;;;;29.80;16.80;;;;;;;-0.37;45.52;102532.52;107793;1270;107650;-78
2022/03/18 02:54:12;;;;;;;30.70;17.20;;;;;;;-0.38;46.02;102533.61;107779;1271;96050;-78
2022/03/18 02:56:45;;;;;;;28.70;17.90;;;;;;;-0.40;45.91;102540.02;107690;1270;137698;-78
2022/03/18 02:59:17;;;;;;;31.90;17.60;;;;;;;-0.43;45.97;102538.70;107815;1270;111514;-77
2022/03/18 03:01:49;;;;;;;26.60;16.50;;;;;;;-0.45;46.11;102538.09;107715;1270;138067;-78
2022/03/18 03:04:22;;;;;;;29.80;17.40;;;;;;;-0.47;46.02;102544.14;107780;1270;108913;-78
2022/03/18 03:09:43;;;;;;;28.90;17.30;;;;;;;-0.49;46.06;102548.63;107830;1270;96184;-80
2022/03/18 03:12:15;;;;;;;29.90;18.40;;;;;;;-0.51;46.54;102552.30;107826;1269;112743;-77
2022/03/18 03:14:47;;;;;;;28.90;17.00;;;;;;;-0.52;46.33;102553.62;107679;1270;137896;-77
2022/03/18 03:17:20;;;;;;;32.90;18.20;;;;;;;-0.53;46.47;102559.58;107805;1270;109033;-79
2022/03/18 03:19:53;;;;;;;28.70;17.80;;;;;;;-0.53;46.54;102563.46;107675;1270;139297;-77
2022/03/18 03:22:26;;;;;;;32.70;18.10;;;;;;;-0.55;46.64;102562.31;107808;1271;96257;-79
2022/03/18 03:24:58;;;;;;;29.70;18.10;;;;;;;-0.58;46.55;102559.63;107676;1271;138060;-79
2022/03/18 03:27:31;;;;;;;31.30;18.50;;;;;;;-0.59;46.54;102567.26;107839;1270;107662;-79
2022/03/18 03:30:06;;;;;;;33.30;17.20;;;;;;;-0.61;46.81;102567.17;107794;1270;108050;-78
2022/03/18 03:32:38;;;;;;;29.70;18.10;;;;;;;-0.64;46.71;102565.69;107714;1270;138958;-79
2022/03/18 03:35:12;;;;;;;26.30;16.60;;;;;;;-0.65;46.92;102570.42;107796;1270;96196;-79
2022/03/18 03:37:44;;;;;;;30.40;17.50;;;;;;;-0.67;46.77;102567.23;107695;1270;138524;-79
2022/03/18 03:40:19;;;;;;;30.10;17.10;;;;;;;-0.68;46.83;102571.48;107795;1270;108843;-79
2022/03/18 03:42:52;;;;;;;30.10;17.40;;;;;;;-0.69;46.81;102569.36;107659;1270;138042;-78
2022/03/18 03:45:24;;;;;;;33.00;18.30;;;;;;;-0.72;46.94;102572.45;107800;1270;96058;-79
2022/03/18 03:47:56;;;;;;;29.60;17.50;;;;;;;-0.74;46.89;102572.80;107830;1270;96137;-79
2022/03/18 03:50:28;;;;;;;30.40;17.80;;;;;;;-0.76;47.12;102574.94;107674;1271;138040;-79
2022/03/18 03:53:00;;;;;;;29.00;17.90;;;;;;;-0.78;46.93;102578.11;107807;1270;107439;-79
2022/03/18 03:55:34;;;;;;;29.90;18.10;;;;;;;-0.79;47.10;102581.11;107675;1271;137952;-78
2022/03/18 03:58:07;;;;;;;30.40;18.10;;;;;;;-0.80;46.93;102580.56;107767;1269;96082;-79
2022/03/18 04:00:40;;;;;;;30.20;18.30;;;;;;;-0.81;46.92;102588.70;107709;1271;138148;-77
2022/03/18 04:03:13;;;;;;;29.90;18.60;;;;;;;-0.83;46.84;102588.12;107830;1270;112710;-78
2022/03/18 04:05:46;;;;;;;29.10;17.90;;;;;;;-0.84;47.03;102585.85;107795;1270;107875;-78
2022/03/18 04:08:18;;;;;;;28.00;17.40;;;;;;;-0.84;47.31;102594.71;107679;1271;138395;-78
2022/03/18 04:10:50;;;;;;;34.40;17.90;;;;;;;-0.85;47.66;102600.61;106834;1271;97845;-77
2022/03/18 04:13:22;;;;;;;30.00;18.10;;;;;;;-0.87;47.12;102607.35;106192;1270;138051;-77
2022/03/18 04:15:55;;;;;;;31.10;17.90;;;;;;;-0.89;47.23;102606.76;106243;1271;111554;-76
2022/03/18 04:18:27;;;;;;;28.70;17.60;;;;;;;-0.91;47.30;102606.80;106167;1271;139135;-76
2022/03/18 04:20:59;;;;;;;35.00;18.50;;;;;;;-0.92;47.44;102612.02;106288;1271;108259;-78
2022/03/18 04:23:31;;;;;;;30.30;17.80;;;;;;;-0.94;47.62;102617.06;106258;1271;98011;-78
2022/03/18 04:26:04;;;;;;;27.70;18.60;;;;;;;-0.96;47.81;102623.27;106197;1271;138997;-77
2022/03/18 04:28:36;;;;;;;31.60;18.70;;;;;;;-1.00;48.00;102624.79;106236;1271;112089;-78
2022/03/18 04:31:09;;;;;;;29.70;18.40;;;;;;;-1.05;47.82;102626.39;106062;1271;138666;-78
2022/03/18 04:33:42;;;;;;;26.90;17.30;;;;;;;-1.08;48.02;102631.52;106212;1271;107498;-77
2022/03/18 04:36:17;;;;;;;32.00;17.60;;;;;;;-1.10;48.21;102637.38;107787;1270;96146;-78
2022/03/18 04:38:49;;;;;;;35.80;18.60;;;;;;;-1.11;47.75;102638.02;107695;1271;137925;-79
2022/03/18 04:41:22;;;;;;;30.00;17.90;;;;;;;-1.12;48.12;102637.94;107780;1270;111456;-79
2022/03/18 04:43:55;;;;;;;28.60;17.50;;;;;;;-1.13;48.34;102640.96;107643;1270;138079;-79
2022/03/18 04:46:28;;;;;;;29.20;17.70;;;;;;;-1.14;48.27;102643.14;107780;1270;108580;-79
2022/03/18 04:49:01;;;;;;;30.90;16.70;;;;;;;-1.14;48.56;102642.82;107650;1270;140430;-79
2022/03/18 04:51:34;;;;;;;30.10;17.50;;;;;;;-1.12;48.39;102646.33;107799;1270;96216;-79
2022/03/18 04:54:06;;;;;;;28.80;17.20;;;;;;;-1.09;48.23;102645.77;107785;1270;112364;-78
2022/03/18 04:59:29;;;;;;;31.80;15.90;;;;;;;-0.97;48.28;102652.08;107747;1270;108892;-78
2022/03/18 05:02:02;;;;;;;29.60;17.40;;;;;;;-0.89;48.34;102655.44;107561;1271;138970;-78
2022/03/18 05:04:36;;;;;;;30.90;17.30;;;;;;;-0.80;47.83;102658.97;107458;1270;391656;-77
2022/03/18 05:07:11;;;;;;;32.20;18.00;;;;;;;-0.70;48.04;102661.07;107688;1271;139235;-78
2022/03/18 05:09:45;;;;;;;31.30;17.90;;;;;;;-0.55;47.79;102659.24;107786;1270;108769;-78
2022/03/18 05:12:18;;;;;;;32.30;17.40;;;;;;;-0.37;47.90;102665.14;107757;1270;108789;-79
2022/03/18 05:14:56;;;;;;;34.50;18.50;;;;;;;-0.10;47.38;102671.44;107670;1270;138385;-78
2022/03/18 05:17:28;;;;;;;33.20;17.30;;;;;;;0.27;47.16;102672.10;107794;1271;95893;-78
2022/03/18 05:20:04;;;;;;;;;;;;;;;0.72;47.06;102677.98;107662;1271;140606;-78
2022/03/18 05:22:40;;;;;;;32.40;17.30;;;;;;;0.90;46.24;102675.74;107687;1271;108750;-78
2022/03/18 05:25:14;;;;;;;32.80;18.00;;;;;;;1.11;45.75;102675.36;107686;1270;138341;-78
2022/03/18 05:27:47;;;;;;;31.70;17.10;;;;;;;1.46;45.42;102671.25;107782;1270;96065;-78
2022/03/18 05:30:20;;;;;;;27.90;17.10;;;;;;;1.98;44.91;102671.06;107700;1270;96192;-79
2022/03/18 05:32:52;;;;;;;27.10;16.90;;;;;;;2.87;44.18;102675.83;107692;1270;137442;-79
2022/03/18 05:35:28;;;;;;;26.50;17.20;;;;;;;4.12;42.94;102674.42;107770;1271;109275;-79
2022/03/18 05:38:00;;;;;;;23.90;16.10;;;;;;;5.58;41.64;102665.55;107609;1271;138133;-79
2022/03/18 05:40:33;;;;;;;23.70;15.40;;;;;;;7.05;39.79;102667.39;107758;1271;95828;-77
2022/03/18 05:43:05;;;;;;;27.30;16.00;;;;;;;8.49;37.17;102669.48;107634;1268;138530;-78
2022/03/18 05:45:38;;;;;;;26.60;15.80;;;;;;;10.02;36.19;102663.70;107782;1270;112935;-79
2022/03/18 05:48:16;;;;;;;25.60;16.00;;;;;;;11.52;34.37;102663.19;107772;1270;108896;-79
2022/03/18 05:50:48;;;;;;;19.90;14.30;;;;;;;12.60;31.25;102668.15;107649;1270;138682;-79
2022/03/18 05:53:21;;;;;;;25.30;15.10;;;;;;;13.39;30.85;102666.30;107756;1270;96306;-80
2022/03/18 05:58:46;;;;;;;24.30;14.00;;;;;;;14.46;29.08;102667.46;107726;1271;111122;-80
2022/03/18 06:01:18;;;;;;;23.50;14.30;;;;;;;15.13;28.03;102665.48;107649;1271;138379;-80
2022/03/18 06:03:53;;;;;;;24.50;14.50;;;;;;;15.83;27.41;102661.55;107817;1270;107550;-80
2022/03/18 06:06:27;;;;;;;25.30;14.00;;;;;;;16.59;26.63;102658.31;107722;1270;96115;-80
2022/03/18 06:11:51;;;;;;;29.60;14.50;;;;;;;18.25;25.77;102658.86;107805;1270;112677;-81
2022/03/18 06:14:27;;;;;;;25.10;14.50;;;;;;;18.98;24.34;102659.37;107654;1270;138146;-81
2022/03/18 06:17:03;;;;;;;23.50;14.10;;;;;;;19.44;22.93;102669.81;107771;1270;108893;-81
2022/03/18 06:19:36;;;;;;;24.70;13.20;;;;;;;19.77;22.71;102668.61;107544;1271;138260;-81
2022/03/18 06:22:09;;;;;;;22.20;13.60;;;;;;;19.94;21.94;102668.59;107782;1270;96197;-81
2022/03/18 06:24:41;;;;;;;23.50;13.80;;;;;;;20.31;22.17;102678.31;107681;1270;138258;-81
2022/03/18 06:27:13;;;;;;;20.60;13.30;;;;;;;20.84;21.64;102675.55;107710;1270;108617;-80
2022/03/18 06:29:45;;;;;;;16.30;13.00;;;;;;;21.14;20.63;102676.02;107739;1270;108317;-85
2022/03/18 06:32:18;;;;;;;23.30;13.80;;;;;;;21.42;20.65;102677.44;107611;1271;139021;-77
2022/03/18 06:34:50;;;;;;;20.10;13.50;;;;;;;21.88;19.95;102674.91;107781;1270;96417;-83
2022/03/18 06:37:22;;;;;;;21.10;13.10;;;;;;;21.93;18.44;102677.33;107697;1270;139479;-82
2022/03/18 06:39:55;;;;;;;23.50;13.00;;;;;;;21.70;18.62;102680.94;107750;1270;108135;-81
2022/03/18 06:42:27;;;;;;;16.60;12.70;;;;;;;21.87;18.54;102676.52;107765;1270;109411;-81
2022/03/18 06:44:59;;;;;;;19.80;14.00;;;;;;;22.09;18.39;102685.40;107623;1270;138507;-82
2022/03/18 06:47:31;;;;;;;18.50;12.50;;;;;;;22.44;18.75;102679.27;107761;1270;95930;-82
2022/03/18 06:50:05;;;;;;;22.20;14.00;;;;;;;23.13;18.85;102680.80;107570;1270;137985;-82
2022/03/18 06:52:37;;;;;;;21.00;12.80;;;;;;;23.56;16.94;102684.34;107695;1270;107771;-81
2022/03/18 06:55:11;;;;;;;19.50;12.70;;;;;;;23.59;17.16;102684.37;107626;1270;138686;-82
2022/03/18 06:57:43;;;;;;;15.00;12.00;;;;;;;23.86;17.20;102685.70;107750;1270;96119;-82
2022/03/18 07:00:17;;;;;;;19.10;11.90;;;;;;;24.00;17.03;102684.63;107802;1270;96128;-82
2022/03/18 07:02:49;;;;;;;17.70;12.30;;;;;;;23.91;15.65;102688.81;107672;1270;138209;-81
2022/03/18 07:05:22;;;;;;;17.00;11.00;;;;;;;23.54;15.46;102685.48;107759;1270;107678;-81
2022/03/18 07:07:54;;;;;;;14.20;11.50;;;;;;;23.18;15.15;102688.58;107635;1270;138200;-81
2022/03/18 07:10:27;;;;;;;13.00;10.40;;;;;;;22.96;15.92;102691.01;107773;1270;96160;-81
2022/03/18 07:12:59;;;;;;;19.70;11.10;;;;;;;23.19;15.78;102689.95;107619;1270;138783;-80
2022/03/18 07:15:32;;;;;;;18.50;10.80;;;;;;;23.25;16.01;102694.30;107694;1270;112127;-82
2022/03/18 07:18:06;;;;;;;19.50;14.20;;;;;;;23.65;16.08;102699.13;107783;1270;108870;-82
2022/03/18 07:20:39;;;;;;;16.30;11.10;;;;;;;23.99;15.70;102702.25;107585;1270;138901;-82
2022/03/18 07:23:13;;;;;;;15.50;10.60;;;;;;;23.86;14.78;102705.08;107785;1270;96297;-81
2022/03/18 07:25:47;;;;;;;15.00;10.20;;;;;;;23.15;14.48;102703.83;107639;1270;138559;-81
2022/03/18 07:28:24;;;;;;;13.20;10.10;;;;;;;22.96;15.17;102707.02;107690;1270;112622;-82
2022/03/18 07:30:56;;;;;;;17.30;10.60;;;;;;;23.13;15.49;102700.50;107655;1270;138776;-82
2022/03/18 07:33:31;;;;;;;15.50;10.40;;;;;;;23.75;15.21;102705.05;107636;1271;105824;-81
2022/03/18 07:36:06;;;;;;;16.60;10.30;;;;;;;23.79;14.76;102704.66;107711;1270;97096;-82
2022/03/18 07:38:38;;;;;;;16.70;11.20;;;;;;;23.75;14.77;102705.95;107677;1270;138109;-82
2022/03/18 07:41:11;;;;;;;16.70;9.80;;;;;;;23.60;14.32;102705.98;107762;1270;112502;-81
2022/03/18 07:43:43;;;;;;;13.80;9.50;;;;;;;23.10;13.74;102710.94;107610;1270;137898;-81
2022/03/18 07:46:17;;;;;;;18.80;10.70;;;;;;;22.58;14.39;102716.10;107758;1270;108507;-81
2022/03/18 07:48:49;;;;;;;20.40;11.20;;;;;;;22.71;15.15;102715.34;107603;1270;138473;-81
2022/03/18 07:51:22;;;;;;;16.20;10.20;;;;;;;23.27;14.93;102715.30;107780;1270;96485;-81
2022/03/18 07:53:55;;;;;;;20.90;9.60;;;;;;;23.55;14.75;102721.45;107792;1270;112164;-81
2022/03/18 07:56:27;;;;;;;16.50;9.40;;;;;;;23.68;14.45;102720.86;107654;1270;139439;-80
2022/03/18 07:59:00;;;;;;;11.20;8.80;;;;;;;23.55;13.69;102719.33;107734;1270;107779;-78
2022/03/18 08:01:35;;;;;;;12.70;8.60;;;;;;;23.04;13.36;102722.23;107572;1270;137763;-79
2022/03/18 08:04:12;;;;;;;11.50;8.00;;;;;;;22.42;12.91;102732.91;107792;1270;96186;-78
2022/03/18 08:06:44;;;;;;;12.70;8.00;;;;;;;21.67;13.61;102735.25;107573;1271;138269;-80
2022/03/18 08:09:17;;;;;;;10.40;8.60;;;;;;;21.16;14.02;102732.04;107709;1269;108806;-78
2022/03/18 08:11:50;;;;;;;14.60;10.10;;;;;;;21.06;14.40;102727.98;107744;1269;108342;-78
2022/03/18 08:14:22;;;;;;;13.90;9.40;;;;;;;21.29;14.27;102728.55;107662;1270;138886;-79
2022/03/18 08:16:55;;;;;;;18.00;9.50;;;;;;;20.80;14.07;102727.68;107787;1270;96068;-79
2022/03/18 08:19:27;;;;;;;13.10;9.20;;;;;;;20.90;14.50;102734.23;107686;1269;137788;-78
2022/03/18 08:22:01;;;;;;;13.10;9.00;;;;;;;20.79;14.15;102733.03;107684;1270;108531;-78
2022/03/18 08:24:34;;;;;;;14.50;9.00;;;;;;;20.11;13.65;102744.65;107787;1270;107780;-78
2022/03/18 08:27:07;;;;;;;12.50;8.30;;;;;;;19.19;14.11;102743.91;107679;1270;138115;-79
2022/03/18 08:29:39;;;;;;;13.20;8.10;;;;;;;18.68;15.03;102745.33;107794;1270;95895;-73
2022/03/18 08:32:16;;;;;;;12.90;7.90;;;;;;;18.55;14.85;102748.63;107505;1268;137884;-76
2022/03/18 08:34:48;;;;;;;10.50;7.40;;;;;;;18.15;14.69;102751.93;107694;1270;109026;-76
2022/03/18 08:37:56;;;;;;;12.50;7.30;;;;;;;17.74;15.03;102756.55;107670;1270;138478;-76
2022/03/18 08:40:14;;;;;;;11.70;7.50;;;;;;;17.49;15.26;102767.43;107786;1270;96099;-76
2022/03/18 08:42:47;;;;;;;12.00;7.60;;;;;;;17.29;15.55;102756.80;107615;1270;137991;-75
2022/03/18 08:45:19;;;;;;;14.00;8.10;;;;;;;17.30;15.81;102747.96;107789;1270;112228;-77
2022/03/18 08:47:53;;;;;;;15.00;7.70;;;;;;;17.22;15.65;102749.19;107802;1270;108907;-79
2022/03/18 08:50:26;;;;;;;11.60;7.60;;;;;;;17.07;16.11;102746.51;107634;1270;138000;-78
2022/03/18 08:52:59;;;;;;;9.40;7.70;;;;;;;17.02;15.85;102759.60;107764;1270;96242;-82
2022/03/18 08:55:33;;;;;;;14.00;7.20;;;;;;;16.78;15.71;102757.77;107590;1270;138671;-80
2022/03/18 08:58:05;;;;;;;12.80;7.60;;;;;;;16.38;15.90;102761.93;107683;1270;111605;-76
2022/03/18 09:00:38;;;;;;;12.00;8.00;;;;;;;15.77;16.19;102763.73;107633;1271;108840;-76
2022/03/18 09:03:11;;;;;;;12.90;8.30;;;;;;;15.33;16.64;102758.66;107613;1270;137765;-76
2022/03/18 09:05:43;;;;;;;12.10;8.30;;;;;;;15.08;16.89;102779.27;107765;1270;95762;-76
2022/03/18 09:08:16;;;;;;;12.30;8.70;;;;;;;14.88;17.20;102770.55;107659;1270;138743;-77
2022/03/18 09:10:49;;;;;;;18.60;9.60;;;;;;;14.92;17.50;102763.33;107743;1270;112640;-76
2022/03/18 09:13:21;;;;;;;15.50;8.90;;;;;;;14.78;17.27;102781.84;107619;1269;139546;-77
2022/03/18 09:15:53;;;;;;;15.40;8.80;;;;;;;14.65;17.77;102770.41;107708;1270;107027;-77
2022/03/18 09:18:29;;;;;;;13.90;8.90;;;;;;;14.84;17.78;102776.52;107727;1270;97265;-77
2022/03/18 09:21:02;;;;;;;11.80;9.00;;;;;;;14.88;17.51;102778.95;107668;1270;137969;-77
2022/03/18 09:23:34;;;;;;;12.90;8.30;;;;;;;14.76;17.65;102772.23;107807;1270;111558;-77
2022/03/18 09:26:09;;;;;;;16.10;9.70;;;;;;;14.79;17.87;102769.41;107713;1270;138368;-77
2022/03/18 09:28:41;;;;;;;13.50;10.60;;;;;;;15.10;18.12;102763.65;107758;1270;109919;-78
2022/03/18 09:31:14;;;;;;;16.00;10.70;;;;;;;15.44;18.25;102762.03;107667;1269;138554;-77
2022/03/18 09:33:48;;;;;;;12.90;8.10;;;;;;;15.83;17.64;102767.86;107773;1268;96912;-78
2022/03/18 09:36:20;;;;;;;13.10;8.00;;;;;;;15.70;17.18;102767.52;107722;1270;111392;-78
2022/03/18 09:38:54;;;;;;;15.00;9.30;;;;;;;15.79;17.78;102759.32;107647;1269;138005;-79
2022/03/18 09:41:29;;;;;;;13.40;8.60;;;;;;;16.20;17.44;102762.40;107614;1270;108598;-78
2022/03/18 09:44:01;;;;;;;18.70;8.90;;;;;;;16.37;17.63;102764.94;107636;1270;137977;-77
2022/03/18 09:46:34;;;;;;;16.30;8.20;;;;;;;16.84;17.81;102762.39;106520;1270;97831;-78
2022/03/18 09:49:11;;;;;;;10.70;7.60;;;;;;;17.01;16.19;102775.61;107660;1270;138921;-79
2022/03/18 09:51:45;;;;;;;11.90;8.00;;;;;;;16.31;16.45;102762.40;107825;1271;108648;-78
2022/03/18 09:54:32;;;;;;;11.60;7.70;;;;;;;15.86;16.93;102765.19;107728;1270;108905;-78
2022/03/18 09:57:07;;;;;;;17.90;8.40;;;;;;;15.64;17.45;102760.59;107656;1270;138368;-78
2022/03/18 09:59:39;;;;;;;12.30;8.50;;;;;;;15.77;17.50;102755.85;107766;1270;96142;-78
2022/03/18 10:02:29;;;;;;;14.10;9.00;;;;;;;15.95;17.10;102753.48;107668;1270;139513;-78
2022/03/18 10:05:05;;;;;;;9.90;7.70;;;;;;;15.59;17.25;102757.29;107819;1270;107752;-78
2022/03/18 10:07:38;;;;;;;13.10;8.20;;;;;;;15.47;17.43;102761.46;107678;1269;138083;-78
2022/03/18 10:10:15;;;;;;;12.70;8.70;;;;;;;15.33;17.70;102760.95;107723;1269;96762;-77
2022/03/18 10:12:50;;;;;;;14.30;8.10;;;;;;;15.34;17.69;102768.81;107432;1271;137941;-76
2022/03/18 10:15:24;;;;;;;15.60;8.20;;;;;;;15.23;17.45;102780.67;107679;1270;111832;-78
2022/03/18 10:17:58;;;;;;;18.40;8.50;;;;;;;14.92;18.10;102763.16;107726;1271;107807;-77
2022/03/18 10:20:33;;;;;;;16.50;8.20;;;;;;;15.28;18.41;102762.40;107680;1269;138878;-77
2022/03/18 10:23:19;;;;;;;14.30;7.40;;;;;;;15.55;17.78;102756.80;107735;1270;97526;-79
2022/03/18 10:25:53;;;;;;;11.90;7.30;;;;;;;15.15;17.56;102762.90;107637;1270;137728;-74
2022/03/18 10:28:43;;;;;;;12.80;8.20;;;;;;;15.04;17.54;102760.20;107725;1270;111714;-75
2022/03/18 10:31:18;;;;;;;13.20;7.40;;;;;;;14.80;17.36;102761.16;107615;1270;138514;-77
2022/03/18 10:37:07;;;;;;;14.10;8.20;;;;;;;14.53;17.92;102755.45;107801;1269;96233;-77
2022/03/18 10:39:42;;;;;;;19.20;8.60;;;;;;;14.35;18.26;102760.81;107714;1271;95947;-77
2022/03/18 10:42:18;;;;;;;11.90;8.20;;;;;;;14.34;18.50;102759.77;107815;1270;111587;-77
2022/03/18 10:44:53;;;;;;;14.00;7.60;;;;;;;14.45;18.49;102767.95;107685;1270;138690;-77
2022/03/18 10:47:33;;;;;;;12.60;7.50;;;;;;;14.31;18.18;102768.91;107768;1270;108902;-76
2022/03/18 10:50:21;;;;;;;14.00;7.80;;;;;;;14.19;18.26;102766.19;107661;1270;139390;-76
2022/03/18 10:53:11;;;;;;;10.80;6.50;;;;;;;14.17;17.85;102764.80;107780;1270;95977;-76
2022/03/18 10:55:45;;;;;;;12.80;6.80;;;;;;;14.06;17.92;102763.66;107648;1270;138307;-78
2022/03/18 10:58:21;;;;;;;10.60;6.70;;;;;;;13.96;17.70;102765.82;107770;1270;108991;-77
2022/03/18 11:00:56;;;;;;;12.60;7.40;;;;;;;13.70;17.92;102767.18;107691;1270;110600;-77
2022/03/18 11:03:30;;;;;;;15.00;8.40;;;;;;;13.47;18.40;102775.85;107659;1270;139652;-77
2022/03/18 11:06:05;;;;;;;13.60;7.50;;;;;;;13.15;18.44;102770.70;107813;1270;95910;-77
2022/03/18 11:08:45;;;;;;;11.00;7.80;;;;;;;12.98;18.80;102771.60;107697;1270;138552;-79
2022/03/18 11:11:19;;;;;;;11.20;8.10;;;;;;;12.94;18.96;102775.80;107809;1270;108624;-79
2022/03/18 11:13:56;;;;;;;13.10;7.80;;;;;;;12.87;18.87;102777.37;107672;1269;138795;-80
2022/03/18 11:16:31;;;;;;;13.50;7.50;;;;;;;12.76;19.08;102770.25;107692;1269;96032;-80
2022/03/18 11:19:05;;;;;;;11.60;7.80;;;;;;;12.74;19.33;102776.17;107745;1270;96751;-80
2022/03/18 11:21:39;;;;;;;15.90;8.60;;;;;;;12.61;19.44;102776.71;107674;1270;137761;-80
2022/03/18 11:24:14;;;;;;;15.80;8.60;;;;;;;12.51;19.25;102772.68;107761;1270;107958;-80
2022/03/18 11:26:49;;;;;;;13.10;8.50;;;;;;;12.27;19.37;102775.99;107637;1270;139424;-80
2022/03/18 11:29:27;;;;;;;11.30;8.20;;;;;;;12.18;19.49;102769.16;107807;1270;97338;-80
2022/03/18 11:32:24;;;;;;;11.80;7.90;;;;;;;11.98;19.57;102764.60;107642;1270;138117;-80
2022/03/18 11:35:01;;;;;;;13.40;8.40;;;;;;;11.90;19.70;102768.08;107762;1268;112799;-79
2022/03/18 11:37:33;;;;;;;;;;;;;;;11.64;19.71;102768.83;107710;1270;138461;-80
2022/03/18 11:40:30;;;;;;;14.40;8.30;;;;;;;11.45;20.11;102773.10;107787;1270;107738;-80
2022/03/18 11:43:35;;;;;;;13.90;8.90;;;;;;;11.41;20.10;102766.99;107793;1269;96022;-80
2022/03/18 11:46:27;;;;;;;12.60;8.90;;;;;;;11.33;20.30;102768.17;107769;1270;96226;-78